createdAt,value
2023-02-23T00:00:28.347Z,22.27
2023-02-23T00:03:15.022Z,24.50
2023-02-23T00:06:03.654Z,21.03
2023-02-23T00:08:52.095Z,22.03
2023-02-23T00:11:38.685Z,26.23
2023-02-23T00:14:28.008Z,29.87
2023-02-23T00:17:17.418Z,21.93
2023-02-23T00:20:08.006Z,26.83
2023-02-23T00:22:58.124Z,24.50
2023-02-23T00:25:45.782Z,23.90
2023-02-23T00:28:32.066Z,25.63
2023-02-23T00:31:26.902Z,23.13
2023-02-23T00:34:15.508Z,24.60
2023-02-23T00:37:01.727Z,27.60
2023-02-23T00:39:48.166Z,28.97
2023-02-23T00:42:35.651Z,22.43
2023-02-23T00:45:21.758Z,23.60
2023-02-23T00:48:10.714Z,24.90
2023-02-23T00:51:03.814Z,22.20
2023-02-23T00:53:55.065Z,21.57
2023-02-23T00:56:41.842Z,22.00
2023-02-23T00:59:29.652Z,28.77
2023-02-23T01:02:16.136Z,18.33
2023-02-23T01:05:02.412Z,19.83
2023-02-23T01:07:49.204Z,24.40
2023-02-23T01:10:43.096Z,19.20
2023-02-23T01:13:31.205Z,18.70
2023-02-23T01:16:20.811Z,20.33
2023-02-23T01:19:08.377Z,21.73
2023-02-23T01:21:55.027Z,23.90
2023-02-23T01:24:41.501Z,20.60
2023-02-23T01:27:29.192Z,21.57
2023-02-23T01:30:15.852Z,23.17
2023-02-23T01:33:03.367Z,18.33
2023-02-23T01:35:59.465Z,24.23
2023-02-23T01:38:45.712Z,25.27
2023-02-23T01:41:35.129Z,27.37
2023-02-23T01:44:21.751Z,21.50
2023-02-23T01:47:08.673Z,20.57
2023-02-23T01:49:54.873Z,23.97
2023-02-23T01:52:41.038Z,21.93
2023-02-23T01:55:29.224Z,26.87
2023-02-23T01:58:19.775Z,22.70
2023-02-23T02:01:06.259Z,20.57
2023-02-23T02:03:58.672Z,23.23
2023-02-23T02:06:48.179Z,18.67
2023-02-23T02:09:54.759Z,20.60
2023-02-23T02:12:46.610Z,21.40
2023-02-23T02:15:41.128Z,24.57
2023-02-23T02:18:46.392Z,24.00
2023-02-23T02:21:46.962Z,24.87
2023-02-23T02:25:11.745Z,25.67
2023-02-23T02:28:34.064Z,21.67
2023-02-23T02:31:45.524Z,27.17
2023-02-23T02:35:04.710Z,22.93
2023-02-23T02:38:32.691Z,21.93
2023-02-23T02:41:44.519Z,20.10
2023-02-23T02:44:57.631Z,22.17
2023-02-23T02:48:06.400Z,23.57
2023-02-23T02:51:03.577Z,24.13
2023-02-23T02:53:56.039Z,20.97
2023-02-23T02:56:44.905Z,24.13
2023-02-23T03:00:00.189Z,23.27
2023-02-23T03:03:07.182Z,23.80
2023-02-23T03:06:13.012Z,21.13
2023-02-23T03:09:32.931Z,19.60
2023-02-23T03:13:10.363Z,24.43
2023-02-23T03:16:39.717Z,20.90
2023-02-23T03:19:48.873Z,25.97
2023-02-23T03:23:00.269Z,21.67
2023-02-23T03:26:30.195Z,23.47
2023-02-23T03:29:44.139Z,20.23
2023-02-23T03:33:06.746Z,21.53
2023-02-23T03:36:34.836Z,24.13
2023-02-23T03:40:15.723Z,24.70
2023-02-23T03:43:24.944Z,22.70
2023-02-23T03:46:32.822Z,23.57
2023-02-23T03:49:40.061Z,26.13
2023-02-23T03:52:53.410Z,22.40
2023-02-23T03:56:04.548Z,23.67
2023-02-23T03:59:15.939Z,25.17
2023-02-23T04:02:22.331Z,24.50
2023-02-23T04:05:35.045Z,23.83
2023-02-23T04:08:42.877Z,23.13
2023-02-23T04:11:58.489Z,26.17
2023-02-23T04:15:03.501Z,28.67
2023-02-23T04:17:49.963Z,19.80
2023-02-23T04:20:36.487Z,25.43
2023-02-23T04:23:23.727Z,22.87
2023-02-23T04:26:10.100Z,21.00
2023-02-23T04:28:56.371Z,23.33
2023-02-23T04:31:42.923Z,21.87
2023-02-23T04:34:29.261Z,23.70
2023-02-23T04:37:15.800Z,23.30
2023-02-23T04:40:02.014Z,21.20
2023-02-23T04:42:48.269Z,27.20
2023-02-23T04:45:34.418Z,27.57
2023-02-23T04:48:21.031Z,26.17
2023-02-23T04:51:07.285Z,24.97
2023-02-23T04:53:54.090Z,24.20
2023-02-23T04:56:40.299Z,21.30
2023-02-23T04:59:26.984Z,25.03
2023-02-23T05:02:13.542Z,23.60
2023-02-23T05:05:01.268Z,21.03
2023-02-23T05:07:47.999Z,23.93
2023-02-23T05:10:34.694Z,20.67
2023-02-23T05:13:20.846Z,23.37
2023-02-23T05:16:07.783Z,21.93
2023-02-23T05:18:54.434Z,26.47
2023-02-23T05:21:41.424Z,21.43
2023-02-23T05:24:27.846Z,24.97
2023-02-23T05:27:15.516Z,22.60
2023-02-23T05:30:02.444Z,25.30
2023-02-23T05:32:49.327Z,25.43
2023-02-23T05:35:35.684Z,24.10
2023-02-23T05:38:21.983Z,23.97
2023-02-23T05:41:11.372Z,27.17
2023-02-23T05:43:57.573Z,22.17
2023-02-23T05:46:46.427Z,26.60
2023-02-23T05:49:32.657Z,26.30
2023-02-23T05:52:19.263Z,27.57
2023-02-23T05:55:06.497Z,26.80
2023-02-23T05:57:53.049Z,28.50
2023-02-23T06:00:40.006Z,29.60
2023-02-23T06:03:26.950Z,27.77
2023-02-23T06:06:13.957Z,31.07
2023-02-23T06:09:00.421Z,37.03
2023-02-23T06:11:46.826Z,27.63
2023-02-23T06:14:33.413Z,26.97
2023-02-23T06:17:19.698Z,24.07
2023-02-23T06:20:07.319Z,26.00
2023-02-23T06:22:53.829Z,28.07
2023-02-23T06:25:41.069Z,29.90
2023-02-23T06:28:29.023Z,27.43
2023-02-23T06:31:15.586Z,37.37
2023-02-23T06:34:01.976Z,31.60
2023-02-23T06:36:48.340Z,30.83
2023-02-23T06:39:34.851Z,30.90
2023-02-23T06:42:21.226Z,31.90
2023-02-23T06:45:07.975Z,36.77
2023-02-23T06:47:54.612Z,31.67
2023-02-23T06:50:41.689Z,31.13
2023-02-23T06:53:28.816Z,25.53
2023-02-23T06:56:15.492Z,30.37
2023-02-23T06:59:01.914Z,27.03
2023-02-23T07:01:48.543Z,23.00
2023-02-23T07:04:35.029Z,29.57
2023-02-23T07:07:21.158Z,26.90
2023-02-23T07:10:07.811Z,28.83
2023-02-23T07:12:54.487Z,26.83
2023-02-23T07:15:41.558Z,29.30
2023-02-23T07:18:28.663Z,29.97
2023-02-23T07:21:15.036Z,26.77
2023-02-23T07:24:04.752Z,26.47
2023-02-23T07:26:52.064Z,29.40
2023-02-23T07:29:38.465Z,27.20
2023-02-23T07:32:25.095Z,31.43
2023-02-23T07:35:11.742Z,28.23
2023-02-23T07:37:58.341Z,25.30
2023-02-23T07:40:44.977Z,26.83
2023-02-23T07:43:31.533Z,25.23
2023-02-23T07:46:17.942Z,25.90
2023-02-23T07:49:04.459Z,26.50
2023-02-23T07:51:50.888Z,26.13
2023-02-23T07:54:37.287Z,21.10
2023-02-23T07:57:25.012Z,24.73
2023-02-23T08:00:12.092Z,26.70
2023-02-23T08:03:02.617Z,22.73
2023-02-23T08:05:48.890Z,25.60
2023-02-23T08:08:35.483Z,23.57
2023-02-23T08:11:22.377Z,22.97
2023-02-23T08:14:10.584Z,18.80
2023-02-23T08:16:57.246Z,20.07
2023-02-23T08:19:43.887Z,22.40
2023-02-23T08:22:35.535Z,23.13
2023-02-23T08:25:30.051Z,20.67
2023-02-23T08:28:16.354Z,27.83
2023-02-23T08:31:02.952Z,22.23
2023-02-23T08:33:49.821Z,25.43
2023-02-23T08:36:36.353Z,27.50
2023-02-23T08:39:23.041Z,26.10
2023-02-23T08:42:09.564Z,20.23
2023-02-23T08:44:55.856Z,20.20
2023-02-23T08:47:42.333Z,25.23
2023-02-23T08:50:28.606Z,19.90
2023-02-23T08:53:14.853Z,24.57
2023-02-23T08:56:03.963Z,21.40
2023-02-23T08:58:51.548Z,21.73
2023-02-23T09:01:38.238Z,18.83
2023-02-23T09:04:24.832Z,22.03
2023-02-23T09:07:15.589Z,19.63
2023-02-23T09:10:02.270Z,21.93
2023-02-23T09:12:48.764Z,18.07
2023-02-23T09:15:35.130Z,19.37
2023-02-23T09:18:23.948Z,21.10
2023-02-23T09:21:22.083Z,20.57
2023-02-23T09:24:08.693Z,17.83
2023-02-23T09:26:55.300Z,19.63
2023-02-23T09:29:42.371Z,16.10
2023-02-23T09:32:28.694Z,15.40
2023-02-23T09:35:17.863Z,16.13
2023-02-23T09:38:06.461Z,19.20
2023-02-23T09:40:54.380Z,14.33
2023-02-23T09:43:55.301Z,13.87
2023-02-23T09:46:50.651Z,18.13
2023-02-23T09:49:40.905Z,14.37
2023-02-23T09:52:49.352Z,18.27
2023-02-23T09:55:38.535Z,12.47
2023-02-23T09:58:30.786Z,14.57
2023-02-23T10:01:20.409Z,14.67
2023-02-23T10:04:40.767Z,15.77
2023-02-23T10:07:27.003Z,14.90
2023-02-23T10:10:42.298Z,15.43
2023-02-23T10:13:39.594Z,12.70
2023-02-23T10:16:43.096Z,12.23
2023-02-23T10:19:41.677Z,11.40
2023-02-23T10:22:29.091Z,8.23
2023-02-23T10:25:24.094Z,11.17
2023-02-23T10:28:21.379Z,9.90
2023-02-23T10:31:26.808Z,7.23
2023-02-23T10:34:17.799Z,8.53
2023-02-23T10:37:06.649Z,7.03
2023-02-23T10:39:53.528Z,6.63
2023-02-23T10:42:40.140Z,7.73
2023-02-23T10:45:28.698Z,8.27
2023-02-23T10:48:22.427Z,7.50
2023-02-23T10:51:20.482Z,7.07
2023-02-23T10:54:43.033Z,7.47
2023-02-23T10:57:32.448Z,7.70
2023-02-23T11:00:30.751Z,6.67
2023-02-23T11:03:32.399Z,11.10
2023-02-23T11:06:45.637Z,8.07
2023-02-23T11:09:45.582Z,10.03
2023-02-23T11:12:43.601Z,10.40
2023-02-23T11:15:49.870Z,9.20
2023-02-23T11:18:39.310Z,10.37
2023-02-23T11:21:29.505Z,7.50
2023-02-23T11:24:22.399Z,9.03
2023-02-23T11:27:21.143Z,6.07
2023-02-23T11:30:11.338Z,6.77
2023-02-23T11:33:10.810Z,5.97
2023-02-23T11:35:59.791Z,7.77
2023-02-23T11:38:47.807Z,4.20
2023-02-23T11:41:37.245Z,6.77
2023-02-23T11:44:24.018Z,5.60
2023-02-23T11:47:19.068Z,4.83
2023-02-23T11:50:06.841Z,5.83
2023-02-23T11:53:04.824Z,4.93
2023-02-23T11:55:54.837Z,4.33
2023-02-23T11:58:49.758Z,8.20
2023-02-23T12:01:45.281Z,3.07
2023-02-23T12:04:40.358Z,3.47
2023-02-23T12:07:41.387Z,5.83
2023-02-23T12:10:49.339Z,6.33
2023-02-23T12:13:42.218Z,2.90
2023-02-23T12:16:35.773Z,5.23
2023-02-23T12:19:55.714Z,4.50
2023-02-23T12:23:20.037Z,3.90
2023-02-23T12:26:21.477Z,8.40
2023-02-23T12:29:44.428Z,6.67
2023-02-23T12:32:40.717Z,3.97
2023-02-23T12:35:42.290Z,3.50
2023-02-23T12:38:48.647Z,5.43
2023-02-23T12:42:00.152Z,4.33
2023-02-23T12:44:53.889Z,5.87
2023-02-23T12:47:59.491Z,4.80
2023-02-23T12:50:56.005Z,3.70
2023-02-23T12:53:44.264Z,6.67
2023-02-23T12:56:55.734Z,5.20
2023-02-23T12:59:56.954Z,4.27
2023-02-23T13:02:58.632Z,7.57
2023-02-23T13:06:22.757Z,8.87
2023-02-23T13:09:57.417Z,14.03
2023-02-23T13:12:52.976Z,19.27
2023-02-23T13:15:45.623Z,8.23
2023-02-23T13:18:59.501Z,6.80
2023-02-23T13:21:54.113Z,4.70
2023-02-23T13:24:46.133Z,16.90
2023-02-23T13:27:40.344Z,4.33
2023-02-23T13:30:32.334Z,9.67
2023-02-23T13:33:34.961Z,7.80
2023-02-23T13:36:31.188Z,8.93
2023-02-23T13:39:55.148Z,5.23
2023-02-23T13:42:56.533Z,9.17
2023-02-23T13:46:10.780Z,8.57
2023-02-23T13:49:20.554Z,6.97
2023-02-23T13:52:22.299Z,6.80
2023-02-23T13:55:29.434Z,8.07
2023-02-23T13:58:29.456Z,6.47
2023-02-23T14:01:23.531Z,17.43
2023-02-23T14:04:37.254Z,27.43
2023-02-23T14:07:30.040Z,12.73
2023-02-23T14:10:21.524Z,8.17
2023-02-23T14:13:14.095Z,9.20
2023-02-23T14:16:16.782Z,9.80
2023-02-23T14:19:15.527Z,8.80
2023-02-23T14:22:10.503Z,6.87
2023-02-23T14:25:34.456Z,7.00
2023-02-23T14:28:35.275Z,5.43
2023-02-23T14:31:23.477Z,9.83
2023-02-23T14:34:13.635Z,7.30
2023-02-23T14:37:14.893Z,19.00
2023-02-23T14:40:17.186Z,9.47
2023-02-23T14:43:24.029Z,8.60
2023-02-23T14:46:22.072Z,5.10
2023-02-23T14:49:16.647Z,9.73
2023-02-23T14:52:24.549Z,7.93
2023-02-23T14:55:10.972Z,10.93
2023-02-23T14:57:58.037Z,7.57
2023-02-23T15:00:44.954Z,8.03
2023-02-23T15:03:31.534Z,15.33
2023-02-23T15:06:19.038Z,6.50
2023-02-23T15:09:06.886Z,11.93
2023-02-23T15:11:55.733Z,10.00
2023-02-23T15:14:43.377Z,10.27
2023-02-23T15:17:32.852Z,10.70
2023-02-23T15:20:28.791Z,7.17
2023-02-23T15:23:19.206Z,10.67
2023-02-23T15:26:31.743Z,7.33
2023-02-23T15:29:21.039Z,7.27
2023-02-23T15:32:26.375Z,7.27
2023-02-23T15:35:13.535Z,8.77
2023-02-23T15:38:14.083Z,6.00
2023-02-23T15:41:15.359Z,8.00
2023-02-23T15:44:09.865Z,7.93
2023-02-23T15:47:02.979Z,11.33
2023-02-23T15:49:50.174Z,7.50
2023-02-23T15:52:44.945Z,7.73
2023-02-23T15:55:37.590Z,8.00
2023-02-23T15:58:30.667Z,8.77
2023-02-23T16:01:24.851Z,8.93
2023-02-23T16:04:14.417Z,7.43
2023-02-23T16:07:23.451Z,9.60
2023-02-23T16:10:23.680Z,7.70
2023-02-23T16:13:13.669Z,7.40
2023-02-23T16:16:00.120Z,10.60
2023-02-23T16:18:53.164Z,10.70
2023-02-23T16:21:39.579Z,9.47
2023-02-23T16:24:29.407Z,10.13
2023-02-23T16:27:16.104Z,14.53
2023-02-23T16:30:23.310Z,9.57
2023-02-23T16:33:19.720Z,8.87
2023-02-23T16:36:15.202Z,10.03
2023-02-23T16:39:03.306Z,12.27
2023-02-23T16:41:50.836Z,15.07
2023-02-23T16:44:43.750Z,12.97
2023-02-23T16:47:42.243Z,13.40
2023-02-23T16:50:29.738Z,13.17
2023-02-23T16:53:17.048Z,33.27
2023-02-23T16:56:12.444Z,20.77
2023-02-23T16:59:02.481Z,34.67
2023-02-23T17:01:50.102Z,43.20
2023-02-23T17:04:36.540Z,59.97
2023-02-23T17:07:24.169Z,42.33
2023-02-23T17:10:25.551Z,14.93
2023-02-23T17:13:18.639Z,16.90
2023-02-23T17:16:07.465Z,18.87
2023-02-23T17:18:54.163Z,10.23
2023-02-23T17:21:40.454Z,12.03
2023-02-23T17:24:26.700Z,14.00
2023-02-23T17:27:12.981Z,17.43
2023-02-23T17:29:59.506Z,13.20
2023-02-23T17:32:46.405Z,11.47
2023-02-23T17:35:33.612Z,11.80
2023-02-23T17:38:21.528Z,14.60
2023-02-23T17:41:09.769Z,14.20
2023-02-23T17:43:56.483Z,13.60
2023-02-23T17:46:42.997Z,13.20
2023-02-23T17:49:29.363Z,14.63
2023-02-23T17:52:15.706Z,13.83
2023-02-23T17:55:02.120Z,12.60
2023-02-23T17:57:48.732Z,14.90
2023-02-23T18:00:38.834Z,13.60
2023-02-23T18:03:31.872Z,16.43
2023-02-23T18:06:19.669Z,15.33
2023-02-23T18:09:06.127Z,15.67
2023-02-23T18:11:52.624Z,13.20
2023-02-23T18:14:39.161Z,19.17
2023-02-23T18:17:25.617Z,18.53
2023-02-23T18:20:14.910Z,18.37
2023-02-23T18:23:01.492Z,17.17
2023-02-23T18:25:49.412Z,19.47
2023-02-23T18:28:36.168Z,16.37
2023-02-23T18:31:28.064Z,15.37
2023-02-23T18:34:14.746Z,15.93
2023-02-23T18:37:03.474Z,17.13
2023-02-23T18:39:53.082Z,14.77
2023-02-23T18:42:39.599Z,14.27
2023-02-23T18:45:26.300Z,13.63
2023-02-23T18:48:14.287Z,16.63
2023-02-23T18:51:01.501Z,17.83
2023-02-23T18:53:52.447Z,21.70
2023-02-23T18:56:40.140Z,18.27
2023-02-23T18:59:26.810Z,24.57
2023-02-23T19:02:13.406Z,23.30
2023-02-23T19:05:02.925Z,18.50
2023-02-23T19:07:49.455Z,25.07
2023-02-23T19:10:36.315Z,27.83
2023-02-23T19:13:22.753Z,31.23
2023-02-23T19:16:09.021Z,28.20
2023-02-23T19:18:55.820Z,25.27
2023-02-23T19:21:42.432Z,23.13
2023-02-23T19:24:29.033Z,18.83
2023-02-23T19:27:15.939Z,20.87
2023-02-23T19:30:02.414Z,16.23
2023-02-23T19:32:49.241Z,21.63
2023-02-23T19:35:38.972Z,20.17
2023-02-23T19:38:27.438Z,18.27
2023-02-23T19:41:17.691Z,22.90
2023-02-23T19:44:04.332Z,16.77
2023-02-23T19:46:51.210Z,22.53
2023-02-23T19:49:37.446Z,17.20
2023-02-23T19:52:24.869Z,15.47
2023-02-23T19:55:12.010Z,18.47
2023-02-23T19:57:58.689Z,19.03
2023-02-23T20:00:47.014Z,18.73
2023-02-23T20:03:34.044Z,17.83
2023-02-23T20:06:22.309Z,21.10
2023-02-23T20:09:09.476Z,14.87
2023-02-23T20:11:56.525Z,19.73
2023-02-23T20:14:43.679Z,19.10
2023-02-23T20:17:30.047Z,19.57
2023-02-23T20:20:16.873Z,19.73
2023-02-23T20:23:07.624Z,16.07
2023-02-23T20:25:53.720Z,17.97
2023-02-23T20:28:40.848Z,19.13
2023-02-23T20:31:35.684Z,22.30
2023-02-23T20:34:24.425Z,18.10
2023-02-23T20:37:12.059Z,14.70
2023-02-23T20:39:58.529Z,23.80
2023-02-23T20:42:47.685Z,21.90
2023-02-23T20:45:34.303Z,22.77
2023-02-23T20:48:21.038Z,22.93
2023-02-23T20:51:13.619Z,19.07
2023-02-23T20:54:00.081Z,23.43
2023-02-23T20:56:46.642Z,17.33
2023-02-23T20:59:37.916Z,22.93
2023-02-23T21:02:24.538Z,28.23
2023-02-23T21:05:12.260Z,24.73
2023-02-23T21:08:06.038Z,26.13
2023-02-23T21:10:52.446Z,23.60
2023-02-23T21:13:39.290Z,21.77
2023-02-23T21:16:26.435Z,20.47
2023-02-23T21:19:14.800Z,25.30
2023-02-23T21:22:01.799Z,20.77
2023-02-23T21:24:48.065Z,30.90
2023-02-23T21:27:34.573Z,26.53
2023-02-23T21:30:24.048Z,27.03
2023-02-23T21:33:10.221Z,18.67
2023-02-23T21:35:58.627Z,18.07
2023-02-23T21:38:45.469Z,28.60
2023-02-23T21:41:33.688Z,23.87
2023-02-23T21:44:20.311Z,25.93
2023-02-23T21:47:07.211Z,18.67
2023-02-23T21:49:54.367Z,19.67
2023-02-23T21:52:45.086Z,23.60
2023-02-23T21:55:31.653Z,23.47
2023-02-23T21:58:18.045Z,24.07
2023-02-23T22:01:13.381Z,19.43
2023-02-23T22:04:00.443Z,20.10
2023-02-23T22:06:46.839Z,16.77
2023-02-23T22:09:33.415Z,20.40
2023-02-23T22:12:19.890Z,17.80
2023-02-23T22:15:16.285Z,20.60
2023-02-23T22:18:02.685Z,25.17
2023-02-23T22:20:56.180Z,18.00
2023-02-23T22:23:43.894Z,16.67
2023-02-23T22:26:30.401Z,17.97
2023-02-23T22:29:17.115Z,18.80
2023-02-23T22:32:03.636Z,19.43
2023-02-23T22:34:50.251Z,17.40
2023-02-23T22:37:36.636Z,19.83
2023-02-23T22:40:23.905Z,19.03
2023-02-23T22:43:11.210Z,30.53
2023-02-23T22:45:58.011Z,20.17
2023-02-23T22:48:45.110Z,19.43
2023-02-23T22:51:31.919Z,24.40
2023-02-23T22:54:20.421Z,21.07
2023-02-23T22:57:06.996Z,18.87
2023-02-23T23:00:00.427Z,20.53
2023-02-23T23:02:47.056Z,21.37
2023-02-23T23:05:33.772Z,18.63
2023-02-23T23:08:20.524Z,19.93
2023-02-23T23:11:29.898Z,18.37
2023-02-23T23:14:19.290Z,21.53
2023-02-23T23:17:05.439Z,19.97
2023-02-23T23:19:51.620Z,21.67
2023-02-23T23:22:38.459Z,18.67
2023-02-23T23:25:24.730Z,24.13
2023-02-23T23:28:14.362Z,24.10
2023-02-23T23:31:02.529Z,23.77
2023-02-23T23:33:51.655Z,22.27
2023-02-23T23:36:46.187Z,20.10
2023-02-23T23:39:32.495Z,21.83
2023-02-23T23:42:20.296Z,21.20
2023-02-23T23:45:09.827Z,22.03
2023-02-23T23:47:56.528Z,20.80
2023-02-23T23:50:42.968Z,17.67
2023-02-23T23:53:29.413Z,21.60
2023-02-23T23:56:15.867Z,21.40
2023-02-23T23:59:02.406Z,22.43
